Impacts METAR Board
IDs:

KSTL - St Louis/Lambert Int, MO, US

Updated at: 1300 UTC 05 Apr 2020
Potential Impact None Slight Moderate High
Time 05/01Z 05/02Z 05/03Z 05/04Z 05/05Z 05/06Z 05/07Z 05/08Z 05/09Z 05/10Z 05/11Z 05/12Z 05/13Z
Temp43 42 43 43 43 44 44 44 44 44 44 43 44
Dewpt36 37 37 37 37 37 38 38 38 38 38 37 37
Altim30.12 30.13 30.13 30.13 30.12 30.12 30.13 30.11 30.11 30.08 30.12 30.13 30.14
VIS10 10 10 10 10 10 10 10 10 10 10 10 8
CIG14 13 14 16 41 26 26 27 28 26 27 27 22
CoverOVCOVCOVCOVCOVCOVCOVCOVCOVCOVCOVCOVCOVC
FltCatMVFRMVFRMVFRMVFRVFRMVFRMVFRMVFRMVFRMVFRMVFRMVFRMVFR
WX--------------------------
WDir350300000280280340403501020
WSpd5 5 0 0 0 0 4 3 4 8 4 5 5
WGst-- -- -- -- -- -- -- -- -- -- -- -- --
Raw hourly METARs
KSTL 050051Z 35005KT 10SM OVC014 06/02 A3012 RMK AO2 SLP206 T00610022
KSTL 050151Z 03005KT 10SM OVC013 06/03 A3013 RMK AO2 SLP210 T00560028
KSTL 050251Z 00000KT 10SM BKN014 OVC037 06/03 A3013 RMK AO2 SLP209 T00610028 50002
KSTL 050351Z 00000KT 10SM FEW012 BKN016 OVC045 06/03 A3013 RMK AO2 SLP207 T00610028
KSTL 050451Z 00000KT 10SM FEW026 BKN041 OVC080 06/03 A3012 RMK AO2 SLP204 T00610028
KSTL 050551Z 00000KT 10SM OVC026 07/03 A3012 RMK AO2 SLP205 T00670028 10067 20056 400670028 55003
KSTL 050651Z 28004KT 10SM BKN026 OVC038 07/03 A3013 RMK AO2 SLP208 T00670033
KSTL 050751Z 28003KT 10SM OVC027 07/03 A3011 RMK AO2 SLP202 T00670033
KSTL 050851Z 34004KT 10SM OVC028 07/03 A3011 RMK AO2 SLP201 T00670033 58004
KSTL 050951Z 04008KT 10SM OVC026 07/03 A3008 RMK AO2 SLP190 T00670033
KSTL 051051Z 35004KT 10SM OVC027 07/03 A3012 RMK AO2 SLP202 T00670033
KSTL 051151Z 01005KT 10SM SCT016 OVC027 06/03 A3013 RMK AO2 SLP207 70006 T00610028 10067 20061 53006
KSTL 051251Z 02005KT 8SM OVC022 07/03 A3014 RMK AO2 SLP211 T00670028



Page loaded:  13:15 UTC  |   06:15 AM Pacific  |   07:15 AM Mountain  |   08:15 AM Central  |   09:15 AM Eastern

 

ADVISORIES

FORECASTS

FORECASTS

OBSERVATIONS

USER TOOLS

ABOUT US